Terminal Aerodrome Forecast
Issued by NWS Chicago, IL

Home | Current Version | Previous Version | Graphics & Text | Print | Product List | Glossary On
Versions: 1 2 3 4 5 6 7 8 9 10 11 12 13 14 15 16 17 18 19 20 21 22 23 24
000
FTUS43 KLOT 210520
TAFRFD
TAF
KRFD 210520Z 2106/2206 30012G17KT P6SM BKN030
     FM211200 34010G15KT P6SM BKN035
     FM211900 02010G15KT P6SM BKN035
     FM220000 03008KT P6SM SCT250=

USA.gov is the U.S. government's official web portal to all federal, state and local government web resources and services.